sensor_id;sensor_type;location;lat;lon;timestamp;pressure;altitude;pressure_sealevel;temperature;humidity
56334;BME280;42240;53.626;55.886;2023-02-02T09:01:52;77808.69;;;-145.10;44.26
56334;BME280;42240;53.626;55.886;2023-02-02T09:03:25;77810.66;;;-145.10;44.24
56334;BME280;42240;53.626;55.886;2023-02-02T09:04:58;77864.06;;;-145.10;44.18
56334;BME280;42240;53.626;55.886;2023-02-02T09:06:37;77854.16;;;-145.10;44.62
56334;BME280;42240;53.626;55.886;2023-02-02T09:08:10;77913.50;;;-145.10;45.28
56334;BME280;42240;53.626;55.886;2023-02-02T09:09:43;77949.13;;;-145.10;46.34
56334;BME280;42240;53.626;55.886;2023-02-02T09:11:18;77953.06;;;-145.10;46.40
56334;BME280;42240;53.626;55.886;2023-02-02T09:12:51;77978.78;;;-145.10;46.69
56334;BME280;42240;53.626;55.886;2023-02-02T09:14:24;77998.56;;;-145.10;46.44
56334;BME280;42240;53.626;55.886;2023-02-02T09:15:59;77984.72;;;-145.10;47.26
56334;BME280;42240;53.626;55.886;2023-02-02T09:17:32;77949.13;;;-145.10;47.53
56334;BME280;42240;53.626;55.886;2023-02-02T09:19:06;77905.59;;;-145.10;47.47
56334;BME280;42240;53.626;55.886;2023-02-02T09:20:39;77873.94;;;-145.10;47.21
56334;BME280;42240;53.626;55.886;2023-02-02T09:22:13;77866.03;;;-145.10;47.00
56334;BME280;42240;53.626;55.886;2023-02-02T09:23:47;77832.41;;;-145.10;47.21
56334;BME280;42240;53.626;55.886;2023-02-02T09:25:21;77808.69;;;-145.10;46.67
56334;BME280;42240;53.626;55.886;2023-02-02T09:26:55;77796.81;;;-145.10;46.64
56334;BME280;42240;53.626;55.886;2023-02-02T09:28:28;77765.16;;;-145.10;46.64
56334;BME280;42240;53.626;55.886;2023-02-02T09:30:01;77765.16;;;-145.10;46.52
56334;BME280;42240;53.626;55.886;2023-02-02T09:31:36;77767.13;;;-145.10;46.21
56334;BME280;42240;53.626;55.886;2023-02-02T09:33:09;77755.28;;;-145.10;45.74
56334;BME280;42240;53.626;55.886;2023-02-02T09:34:42;77733.50;;;-145.10;45.56
56334;BME280;42240;53.626;55.886;2023-02-02T09:36:21;77733.50;;;-145.10;45.50
56334;BME280;42240;53.626;55.886;2023-02-02T09:37:55;77753.28;;;-145.10;45.44
56334;BME280;42240;53.626;55.886;2023-02-02T09:39:28;77794.84;;;-145.10;45.43
56334;BME280;42240;53.626;55.886;2023-02-02T09:41:19;77822.53;;;-145.10;44.97
56334;BME280;42240;53.626;55.886;2023-02-02T09:43:05;77816.59;;;-145.10;44.63
56334;BME280;42240;53.626;55.886;2023-02-02T09:44:53;77798.78;;;-145.10;44.77
56334;BME280;42240;53.626;55.886;2023-02-02T09:46:49;77810.66;;;-145.10;44.64
56334;BME280;42240;53.626;55.886;2023-02-02T09:49:12;77775.06;;;-145.10;44.59
56334;BME280;42240;53.626;55.886;2023-02-02T09:52:03;77735.50;;;-145.10;44.15
56334;BME280;42240;53.626;55.886;2023-02-02T09:53:47;77684.06;;;-145.10;44.06
56334;BME280;42240;53.626;55.886;2023-02-02T09:55:41;77668.25;;;-145.10;44.59
56334;BME280;42240;53.626;55.886;2023-02-02T09:57:20;77632.63;;;-145.10;44.06
56334;BME280;42240;53.626;55.886;2023-02-02T09:58:58;77601.00;;;-145.10;43.71
56334;BME280;42240;53.626;55.886;2023-02-02T10:01:02;77674.19;;;-145.10;42.38
56334;BME280;42240;53.626;55.886;2023-02-02T10:02:39;77668.25;;;-145.10;42.62
56334;BME280;42240;53.626;55.886;2023-02-02T10:04:35;77678.13;;;-145.10;42.08
56334;BME280;42240;53.626;55.886;2023-02-02T10:07:51;77684.06;;;-145.10;43.60
56334;BME280;42240;53.626;55.886;2023-02-02T10:11:25;77701.88;;;-145.10;44.35
56334;BME280;42240;53.626;55.886;2023-02-02T10:13:04;77717.69;;;-145.10;44.36
56334;BME280;42240;53.626;55.886;2023-02-02T10:16:45;77798.78;;;-145.10;44.25
56334;BME280;42240;53.626;55.886;2023-02-02T10:22:04;77763.19;;;-145.10;44.37
56334;BME280;42240;53.626;55.886;2023-02-02T10:23:43;77779.00;;;-145.10;44.96
56334;BME280;42240;53.626;55.886;2023-02-02T10:25:19;77786.91;;;-145.10;45.11
56334;BME280;42240;53.626;55.886;2023-02-02T10:26:57;77779.00;;;-145.10;44.80
56334;BME280;42240;53.626;55.886;2023-02-02T10:28:42;77802.75;;;-145.10;44.59
56334;BME280;42240;53.626;55.886;2023-02-02T10:30:24;77779.00;;;-145.10;44.03
56334;BME280;42240;53.626;55.886;2023-02-02T10:34:00;77782.97;;;-145.10;45.09
56334;BME280;42240;53.626;55.886;2023-02-02T10:35:44;77769.13;;;-145.10;45.68
56334;BME280;42240;53.626;55.886;2023-02-02T10:41:05;77818.56;;;-145.10;45.64
56334;BME280;42240;53.626;55.886;2023-02-02T10:42:49;77782.97;;;-145.10;45.51
56334;BME280;42240;53.626;55.886;2023-02-02T10:44:56;77790.88;;;-145.10;45.86
56334;BME280;42240;53.626;55.886;2023-02-02T10:46:44;77790.88;;;-145.10;46.61
56334;BME280;42240;53.626;55.886;2023-02-02T10:48:22;77802.75;;;-145.10;47.39
56334;BME280;42240;53.626;55.886;2023-02-02T10:53:47;77810.66;;;-145.10;49.56
56334;BME280;42240;53.626;55.886;2023-02-02T10:57:37;77842.31;;;-145.10;50.14
56334;BME280;42240;53.626;55.886;2023-02-02T10:59:29;77846.25;;;-145.10;51.68
56334;BME280;42240;53.626;55.886;2023-02-02T11:01:03;77858.13;;;-145.10;51.42
56334;BME280;42240;53.626;55.886;2023-02-02T11:02:42;77850.22;;;-145.10;52.77
56334;BME280;42240;53.626;55.886;2023-02-02T11:04:19;77860.09;;;-145.10;52.65
56334;BME280;42240;53.626;55.886;2023-02-02T11:06:12;77980.78;;;-145.10;52.82
56334;BME280;42240;53.626;55.886;2023-02-02T11:10:02;77871.97;;;-145.10;53.69
56334;BME280;42240;53.626;55.886;2023-02-02T11:11:40;77960.97;;;-145.10;53.05
56334;BME280;42240;53.626;55.886;2023-02-02T11:13:28;77885.81;;;-145.10;52.76
56334;BME280;42240;53.626;55.886;2023-02-02T11:15:06;77891.75;;;-145.10;53.11
56334;BME280;42240;53.626;55.886;2023-02-02T11:16:41;77901.66;;;-145.10;54.29
56334;BME280;42240;53.626;55.886;2023-02-02T11:18:28;77905.59;;;-145.10;55.92
56334;BME280;42240;53.626;55.886;2023-02-02T11:20:21;77909.56;;;-145.10;57.48
56334;BME280;42240;53.626;55.886;2023-02-02T11:21:56;77939.22;;;-145.10;59.08
56334;BME280;42240;53.626;55.886;2023-02-02T11:23:30;77972.84;;;-145.10;57.80
56334;BME280;42240;53.626;55.886;2023-02-02T11:25:48;77955.06;;;-145.10;59.23
56334;BME280;42240;53.626;55.886;2023-02-02T11:27:16;77988.69;;;-145.10;59.08
56334;BME280;42240;53.626;55.886;2023-02-02T11:28:53;77992.63;;;-145.10;58.79
56334;BME280;42240;53.626;55.886;2023-02-02T11:30:35;77998.56;;;-145.10;58.50
56334;BME280;42240;53.626;55.886;2023-02-02T11:34:24;77986.69;;;-145.10;59.49
56334;BME280;42240;53.626;55.886;2023-02-02T11:36:03;77998.56;;;-145.10;59.16
56334;BME280;42240;53.626;55.886;2023-02-02T11:37:37;77996.59;;;-145.10;60.16
56334;BME280;42240;53.626;55.886;2023-02-02T11:39:18;78020.31;;;-145.10;60.69
56334;BME280;42240;53.626;55.886;2023-02-02T11:41:00;77992.63;;;-145.10;60.52
56334;BME280;42240;53.626;55.886;2023-02-02T11:42:35;77990.66;;;-145.10;61.14
56334;BME280;42240;53.626;55.886;2023-02-02T11:44:19;77988.69;;;-145.10;61.51
56334;BME280;42240;53.626;55.886;2023-02-02T11:45:58;77988.69;;;-145.10;60.62
56334;BME280;42240;53.626;55.886;2023-02-02T11:47:36;77982.75;;;-145.10;60.15
56334;BME280;42240;53.626;55.886;2023-02-02T11:49:17;77982.75;;;-145.10;59.87
56334;BME280;42240;53.626;55.886;2023-02-02T11:51:02;77980.78;;;-145.10;61.38
56334;BME280;42240;53.626;55.886;2023-02-02T11:52:44;77996.59;;;-145.10;62.72
56334;BME280;42240;53.626;55.886;2023-02-02T11:54:27;77992.63;;;-145.10;62.16
56334;BME280;42240;53.626;55.886;2023-02-02T11:56:10;78010.44;;;-145.10;63.31
56334;BME280;42240;53.626;55.886;2023-02-02T11:58:31;78016.38;;;-145.10;65.75
56334;BME280;42240;53.626;55.886;2023-02-02T12:00:20;78026.25;;;-145.10;67.94
56334;BME280;42240;53.626;55.886;2023-02-02T12:02:22;78057.91;;;-145.10;68.17
56334;BME280;42240;53.626;55.886;2023-02-02T12:03:57;78079.66;;;-145.10;69.41
56334;BME280;42240;53.626;55.886;2023-02-02T12:05:34;78111.31;;;-145.10;69.61
56334;BME280;42240;53.626;55.886;2023-02-02T12:09:01;78146.94;;;-145.10;70.32
56334;BME280;42240;53.626;55.886;2023-02-02T12:10:58;78154.84;;;-145.10;70.36
56334;BME280;42240;53.626;55.886;2023-02-02T12:12:49;78154.84;;;-145.10;71.12
56334;BME280;42240;53.626;55.886;2023-02-02T12:16:47;78119.22;;;-145.10;70.44
56334;BME280;42240;53.626;55.886;2023-02-02T12:18:48;78107.38;;;-145.10;70.18
56334;BME280;42240;53.626;55.886;2023-02-02T12:24:31;78127.16;;;-145.10;72.66
56334;BME280;42240;53.626;55.886;2023-02-02T12:32:15;78127.16;;;-145.10;72.95
56334;BME280;42240;53.626;55.886;2023-02-02T12:34:10;78125.16;;;-145.10;72.77
56334;BME280;42240;53.626;55.886;2023-02-02T12:38:14;78129.13;;;-145.10;71.46
56334;BME280;42240;53.626;55.886;2023-02-02T12:40:06;78148.91;;;-145.10;72.02
56334;BME280;42240;53.626;55.886;2023-02-02T12:43:43;78198.34;;;-145.10;74.39
56334;BME280;42240;53.626;55.886;2023-02-02T12:50:58;78204.28;;;-145.10;76.20
56334;BME280;42240;53.626;55.886;2023-02-02T12:54:47;78190.44;;;-145.10;75.82
56334;BME280;42240;53.626;55.886;2023-02-02T12:56:38;78202.31;;;-145.10;77.78
56334;BME280;42240;53.626;55.886;2023-02-02T13:06:57;78208.25;;;-145.10;75.76
56334;BME280;42240;53.626;55.886;2023-02-02T13:09:10;78198.34;;;-145.10;76.43
56334;BME280;42240;53.626;55.886;2023-02-02T13:10:49;78208.25;;;-145.10;76.01
56334;BME280;42240;53.626;55.886;2023-02-02T13:12:27;78220.13;;;-145.10;76.51
56334;BME280;42240;53.626;55.886;2023-02-02T13:14:11;78224.06;;;-145.10;76.99
56334;BME280;42240;53.626;55.886;2023-02-02T13:15:54;78230.00;;;-145.10;76.45
56334;BME280;42240;53.626;55.886;2023-02-02T13:17:55;78241.88;;;-145.10;78.31
56334;BME280;42240;53.626;55.886;2023-02-02T13:19:37;78241.88;;;-145.10;78.25
56334;BME280;42240;53.626;55.886;2023-02-02T13:21:14;78241.88;;;-145.10;79.01
56334;BME280;42240;53.626;55.886;2023-02-02T13:22:51;78237.94;;;-145.10;77.92
56334;BME280;42240;53.626;55.886;2023-02-02T13:24:29;78233.97;;;-145.10;77.66
56334;BME280;42240;53.626;55.886;2023-02-02T13:26:13;78233.97;;;-145.10;76.82
56334;BME280;42240;53.626;55.886;2023-02-02T13:27:48;78289.34;;;-145.10;76.67
56334;BME280;42240;53.626;55.886;2023-02-02T13:30:56;78241.88;;;-145.10;78.30
56334;BME280;42240;53.626;55.886;2023-02-02T13:32:39;78241.88;;;-145.10;78.22
56334;BME280;42240;53.626;55.886;2023-02-02T13:35:58;78241.88;;;-145.10;77.44
56334;BME280;42240;53.626;55.886;2023-02-02T13:39:38;78249.78;;;-145.10;77.54
56334;BME280;42240;53.626;55.886;2023-02-02T13:41:12;78249.78;;;-145.10;78.52
56334;BME280;42240;53.626;55.886;2023-02-02T13:45:01;78237.94;;;-145.10;76.25
56334;BME280;42240;53.626;55.886;2023-02-02T13:46:55;78241.88;;;-145.10;77.03
56334;BME280;42240;53.626;55.886;2023-02-02T13:48:56;78243.84;;;-145.10;77.12
56334;BME280;42240;53.626;55.886;2023-02-02T13:50:42;78239.91;;;-145.10;79.18
56334;BME280;42240;53.626;55.886;2023-02-02T13:54:56;78307.16;;;-145.10;80.22
56334;BME280;42240;53.626;55.886;2023-02-02T14:00:41;78265.63;;;-145.10;78.94
56334;BME280;42240;53.626;55.886;2023-02-02T14:04:20;78265.63;;;-145.10;79.85
56334;BME280;42240;53.626;55.886;2023-02-02T14:06:17;78271.56;;;-145.10;80.05
56334;BME280;42240;53.626;55.886;2023-02-02T14:09:39;78277.50;;;-145.10;81.02
56334;BME280;42240;53.626;55.886;2023-02-02T14:11:24;78277.50;;;-145.10;81.11
56334;BME280;42240;53.626;55.886;2023-02-02T14:15:39;78277.50;;;-145.10;82.15
56334;BME280;42240;53.626;55.886;2023-02-02T14:18:58;78279.47;;;-145.10;82.22
56334;BME280;42240;53.626;55.886;2023-02-02T14:20:42;78275.50;;;-145.10;81.61
56334;BME280;42240;53.626;55.886;2023-02-02T14:22:16;78285.41;;;-145.10;81.62
56334;BME280;42240;53.626;55.886;2023-02-02T14:23:53;78287.38;;;-145.10;81.61
56334;BME280;42240;53.626;55.886;2023-02-02T14:28:48;78326.94;;;-145.10;81.81
56334;BME280;42240;53.626;55.886;2023-02-02T14:30:28;78317.06;;;-145.10;81.01
56334;BME280;42240;53.626;55.886;2023-02-02T14:34:39;78273.53;;;-145.10;82.17
56334;BME280;42240;53.626;55.886;2023-02-02T14:36:15;78273.53;;;-145.10;82.93
56334;BME280;42240;53.626;55.886;2023-02-02T14:38:03;78269.56;;;-145.10;81.97
56334;BME280;42240;53.626;55.886;2023-02-02T14:41:48;78283.44;;;-145.10;81.08
56334;BME280;42240;53.626;55.886;2023-02-02T14:43:47;78285.41;;;-145.10;81.42
56334;BME280;42240;53.626;55.886;2023-02-02T14:45:37;78283.44;;;-145.10;80.59
56334;BME280;42240;53.626;55.886;2023-02-02T14:49:24;78277.50;;;-145.10;79.47
56334;BME280;42240;53.626;55.886;2023-02-02T14:51:00;78281.44;;;-145.10;80.71
56334;BME280;42240;53.626;55.886;2023-02-02T14:52:34;78281.44;;;-145.10;83.01
56334;BME280;42240;53.626;55.886;2023-02-02T14:54:20;78283.44;;;-145.10;84.40
56334;BME280;42240;53.626;55.886;2023-02-02T14:56:05;78289.34;;;-145.10;82.88
56334;BME280;42240;53.626;55.886;2023-02-02T14:57:42;78301.22;;;-145.10;82.25
56334;BME280;42240;53.626;55.886;2023-02-02T14:59:38;78295.28;;;-145.10;82.27
56334;BME280;42240;53.626;55.886;2023-02-02T15:03:34;78287.38;;;-145.10;81.92
56334;BME280;42240;53.626;55.886;2023-02-02T15:09:36;78287.38;;;-145.10;84.31
56334;BME280;42240;53.626;55.886;2023-02-02T15:11:09;78293.31;;;-145.10;84.64
56334;BME280;42240;53.626;55.886;2023-02-02T15:13:04;78297.28;;;-145.10;85.94
56334;BME280;42240;53.626;55.886;2023-02-02T15:16:53;78305.19;;;-145.10;86.45
56334;BME280;42240;53.626;55.886;2023-02-02T15:18:36;78311.13;;;-145.10;86.67
56334;BME280;42240;53.626;55.886;2023-02-02T15:22:54;78307.16;;;-145.10;85.92
56334;BME280;42240;53.626;55.886;2023-02-02T15:23:59;78315.06;;;-145.10;86.56
56334;BME280;42240;53.626;55.886;2023-02-02T15:25:43;78352.66;;;-145.10;86.58
56334;BME280;42240;53.626;55.886;2023-02-02T15:27:21;78313.09;;;-145.10;85.35
56334;BME280;42240;53.626;55.886;2023-02-02T15:28:59;78311.13;;;-145.10;85.05
56334;BME280;42240;53.626;55.886;2023-02-02T15:30:37;78317.06;;;-145.10;85.47
56334;BME280;42240;53.626;55.886;2023-02-02T15:32:44;78313.09;;;-145.10;85.17
56334;BME280;42240;53.626;55.886;2023-02-02T15:34:42;78313.09;;;-145.10;83.13
56334;BME280;42240;53.626;55.886;2023-02-02T15:36:22;78307.16;;;-145.10;83.95
56334;BME280;42240;53.626;55.886;2023-02-02T15:38:05;78309.13;;;-145.10;84.80
56334;BME280;42240;53.626;55.886;2023-02-02T15:39:51;78307.16;;;-145.10;84.96
56334;BME280;42240;53.626;55.886;2023-02-02T15:41:33;78319.03;;;-145.10;85.10
56334;BME280;42240;53.626;55.886;2023-02-02T15:43:07;78330.91;;;-145.10;84.24
56334;BME280;42240;53.626;55.886;2023-02-02T15:44:42;78317.06;;;-145.10;83.60
56334;BME280;42240;53.626;55.886;2023-02-02T15:46:17;78307.16;;;-145.10;83.74
56334;BME280;42240;53.626;55.886;2023-02-02T15:47:57;78315.06;;;-145.10;84.98
56334;BME280;42240;53.626;55.886;2023-02-02T15:49:33;78305.19;;;-145.10;84.05
56334;BME280;42240;53.626;55.886;2023-02-02T15:51:14;78311.13;;;-145.10;83.77
56334;BME280;42240;53.626;55.886;2023-02-02T15:52:49;78315.06;;;-145.10;84.65
56334;BME280;42240;53.626;55.886;2023-02-02T15:54:28;78319.03;;;-145.10;84.58
56334;BME280;42240;53.626;55.886;2023-02-02T15:56:37;78324.97;;;-145.10;85.03
56334;BME280;42240;53.626;55.886;2023-02-02T15:58:29;78376.41;;;-145.10;84.31
56334;BME280;42240;53.626;55.886;2023-02-02T16:00:35;78315.06;;;-145.10;83.48
56334;BME280;42240;53.626;55.886;2023-02-02T16:05:47;78328.94;;;-145.10;82.68
56334;BME280;42240;53.626;55.886;2023-02-02T16:07:28;78317.06;;;-145.10;82.89
56334;BME280;42240;53.626;55.886;2023-02-02T16:09:03;78326.94;;;-145.10;82.82
56334;BME280;42240;53.626;55.886;2023-02-02T16:10:37;78332.88;;;-145.10;83.26
56334;BME280;42240;53.626;55.886;2023-02-02T16:12:17;78338.81;;;-145.10;84.67
56334;BME280;42240;53.626;55.886;2023-02-02T16:13:59;78344.75;;;-145.10;84.85
56334;BME280;42240;53.626;55.886;2023-02-02T16:15:34;78356.63;;;-145.10;85.79
56334;BME280;42240;53.626;55.886;2023-02-02T16:17:21;78364.53;;;-145.10;86.51
56334;BME280;42240;53.626;55.886;2023-02-02T16:20:41;78372.44;;;-145.10;87.13
56334;BME280;42240;53.626;55.886;2023-02-02T16:22:19;78372.44;;;-145.10;86.37
56334;BME280;42240;53.626;55.886;2023-02-02T16:23:57;78374.44;;;-145.10;86.35
56334;BME280;42240;53.626;55.886;2023-02-02T16:25:33;78506.97;;;-145.10;86.40
56334;BME280;42240;53.626;55.886;2023-02-02T16:27:13;78364.53;;;-145.10;85.21
56334;BME280;42240;53.626;55.886;2023-02-02T16:28:47;78374.44;;;-145.10;84.57
56334;BME280;42240;53.626;55.886;2023-02-02T16:30:29;78370.47;;;-145.10;84.63
56334;BME280;42240;53.626;55.886;2023-02-02T16:32:03;78384.31;;;-145.10;84.95
56334;BME280;42240;53.626;55.886;2023-02-02T16:33:40;78392.22;;;-145.10;84.41
56334;BME280;42240;53.626;55.886;2023-02-02T16:35:36;78408.06;;;-145.10;85.22
56334;BME280;42240;53.626;55.886;2023-02-02T16:37:28;78410.03;;;-145.10;85.80
56334;BME280;42240;53.626;55.886;2023-02-02T16:39:14;78419.94;;;-145.10;85.64
56334;BME280;42240;53.626;55.886;2023-02-02T16:40:48;78427.84;;;-145.10;85.36
56334;BME280;42240;53.626;55.886;2023-02-02T16:42:26;78429.81;;;-145.10;84.70
56334;BME280;42240;53.626;55.886;2023-02-02T16:44:29;78439.72;;;-145.10;84.69
56334;BME280;42240;53.626;55.886;2023-02-02T16:47:41;78465.44;;;-145.10;85.99
56334;BME280;42240;53.626;55.886;2023-02-02T16:49:22;78473.34;;;-145.10;86.33
56334;BME280;42240;53.626;55.886;2023-02-02T16:52:58;78485.22;;;-145.10;87.70
56334;BME280;42240;53.626;55.886;2023-02-02T16:54:33;78505.00;;;-145.10;88.45
56334;BME280;42240;53.626;55.886;2023-02-02T16:56:06;78510.94;;;-145.10;89.36
56334;BME280;42240;53.626;55.886;2023-02-02T16:57:43;78524.78;;;-145.10;89.00
56334;BME280;42240;53.626;55.886;2023-02-02T16:59:29;78522.81;;;-145.10;89.59
56334;BME280;42240;53.626;55.886;2023-02-02T17:01:08;78564.34;;;-145.10;89.64
56334;BME280;42240;53.626;55.886;2023-02-02T17:02:51;78530.72;;;-145.10;90.12
56334;BME280;42240;53.626;55.886;2023-02-02T17:04:33;78696.91;;;-145.10;90.29
56334;BME280;42240;53.626;55.886;2023-02-02T17:06:07;78556.44;;;-145.10;90.21
56334;BME280;42240;53.626;55.886;2023-02-02T17:07:46;78594.03;;;-145.10;90.33
56334;BME280;42240;53.626;55.886;2023-02-02T17:09:33;78574.22;;;-145.10;90.97
56334;BME280;42240;53.626;55.886;2023-02-02T17:11:22;78586.09;;;-145.10;91.27
56334;BME280;42240;53.626;55.886;2023-02-02T17:12:57;78597.97;;;-145.10;91.91
56334;BME280;42240;53.626;55.886;2023-02-02T17:14:35;78601.94;;;-145.10;92.90
56334;BME280;42240;53.626;55.886;2023-02-02T17:16:14;78609.84;;;-145.10;93.28
56334;BME280;42240;53.626;55.886;2023-02-02T17:17:50;78621.72;;;-145.10;92.77
56334;BME280;42240;53.626;55.886;2023-02-02T17:19:27;78627.66;;;-145.10;92.78
56334;BME280;42240;53.626;55.886;2023-02-02T17:21:00;78637.53;;;-145.10;93.02
56334;BME280;42240;53.626;55.886;2023-02-02T17:22:41;78653.38;;;-145.10;93.58
56334;BME280;42240;53.626;55.886;2023-02-02T17:24:16;78681.06;;;-145.10;94.43
56334;BME280;42240;53.626;55.886;2023-02-02T17:25:49;78690.97;;;-145.10;94.05
56334;BME280;42240;53.626;55.886;2023-02-02T17:27:25;78704.81;;;-145.10;94.18
56334;BME280;42240;53.626;55.886;2023-02-02T17:28:59;78704.81;;;-145.10;94.12
56334;BME280;42240;53.626;55.886;2023-02-02T17:30:33;78720.63;;;-145.10;94.61
56334;BME280;42240;53.626;55.886;2023-02-02T17:32:07;78710.75;;;-145.10;95.21
56334;BME280;42240;53.626;55.886;2023-02-02T17:33:41;78712.72;;;-145.10;95.57
56334;BME280;42240;53.626;55.886;2023-02-02T17:35:19;78718.66;;;-145.10;96.50
56334;BME280;42240;53.626;55.886;2023-02-02T17:36:53;78748.34;;;-145.10;96.04
56334;BME280;42240;53.626;55.886;2023-02-02T17:38:27;78736.47;;;-145.10;95.59
56334;BME280;42240;53.626;55.886;2023-02-02T17:40:00;78809.66;;;-145.10;95.28
56334;BME280;42240;53.626;55.886;2023-02-02T17:41:34;78799.78;;;-145.10;94.41
56334;BME280;42240;53.626;55.886;2023-02-02T17:43:10;78772.06;;;-145.10;95.71
56334;BME280;42240;53.626;55.886;2023-02-02T17:44:44;78785.94;;;-145.10;95.15
56334;BME280;42240;53.626;55.886;2023-02-02T17:46:17;78898.69;;;-145.10;95.43
56334;BME280;42240;53.626;55.886;2023-02-02T17:47:50;78819.56;;;-145.10;95.93
56334;BME280;42240;53.626;55.886;2023-02-02T17:49:23;78871.00;;;-145.10;95.95
56334;BME280;42240;53.626;55.886;2023-02-02T17:50:56;78829.44;;;-145.10;96.27
56334;BME280;42240;53.626;55.886;2023-02-02T17:52:30;78827.47;;;-145.10;97.00
56334;BME280;42240;53.626;55.886;2023-02-02T17:54:13;78835.38;;;-145.10;97.63
56334;BME280;42240;53.626;55.886;2023-02-02T17:55:47;78831.44;;;-145.10;96.93
56334;BME280;42240;53.626;55.886;2023-02-02T17:57:21;78855.16;;;-145.10;98.67
56334;BME280;42240;53.626;55.886;2023-02-02T17:58:54;78922.44;;;-145.10;99.85
56334;BME280;42240;53.626;55.886;2023-02-02T18:00:27;78863.09;;;-145.10;99.48
56334;BME280;42240;53.626;55.886;2023-02-02T18:02:02;78878.91;;;-145.10;99.50
56334;BME280;42240;53.626;55.886;2023-02-02T18:03:37;78872.97;;;-145.10;99.12
56334;BME280;42240;53.626;55.886;2023-02-02T18:05:11;78876.94;;;-145.10;99.18
56334;BME280;42240;53.626;55.886;2023-02-02T18:06:45;78874.97;;;-145.10;98.94
56334;BME280;42240;53.626;55.886;2023-02-02T18:08:18;78898.69;;;-145.10;100.00
56334;BME280;42240;53.626;55.886;2023-02-02T18:09:52;78878.91;;;-145.10;99.33
56334;BME280;42240;53.626;55.886;2023-02-02T18:11:24;78874.97;;;-145.10;99.95
56334;BME280;42240;53.626;55.886;2023-02-02T18:12:58;78874.97;;;-145.10;99.77
56334;BME280;42240;53.626;55.886;2023-02-02T18:14:31;78878.91;;;-145.10;100.00
56334;BME280;42240;53.626;55.886;2023-02-02T18:16:04;78878.91;;;-145.10;100.00
56334;BME280;42240;53.626;55.886;2023-02-02T18:17:38;78882.88;;;-145.10;100.00
56334;BME280;42240;53.626;55.886;2023-02-02T18:19:11;78886.81;;;-145.10;100.00
56334;BME280;42240;53.626;55.886;2023-02-02T18:20:46;79033.25;;;-145.10;100.00
56334;BME280;42240;53.626;55.886;2023-02-02T18:22:20;78878.91;;;-145.10;100.00
56334;BME280;42240;53.626;55.886;2023-02-02T18:23:54;78874.97;;;-145.10;100.00
56334;BME280;42240;53.626;55.886;2023-02-02T18:25:27;78882.88;;;-145.10;100.00
56334;BME280;42240;53.626;55.886;2023-02-02T18:27:00;78882.88;;;-145.10;100.00
56334;BME280;42240;53.626;55.886;2023-02-02T18:28:33;78890.78;;;-145.10;100.00
56334;BME280;42240;53.626;55.886;2023-02-02T18:30:07;78884.84;;;-145.10;100.00
56334;BME280;42240;53.626;55.886;2023-02-02T18:31:40;78882.88;;;-145.10;100.00
56334;BME280;42240;53.626;55.886;2023-02-02T18:33:15;78950.16;;;-145.10;100.00
56334;BME280;42240;53.626;55.886;2023-02-02T18:34:52;78878.91;;;-145.10;100.00
56334;BME280;42240;53.626;55.886;2023-02-02T18:36:27;78878.91;;;-145.10;100.00
56334;BME280;42240;53.626;55.886;2023-02-02T18:38:00;78871.00;;;-145.10;100.00
56334;BME280;42240;53.626;55.886;2023-02-02T18:39:34;78859.13;;;-145.10;100.00
56334;BME280;42240;53.626;55.886;2023-02-02T18:41:07;78847.25;;;-145.10;100.00
56334;BME280;42240;53.626;55.886;2023-02-02T18:42:40;78849.25;;;-145.10;100.00
56334;BME280;42240;53.626;55.886;2023-02-02T18:44:13;78845.28;;;-145.10;100.00
56334;BME280;42240;53.626;55.886;2023-02-02T18:45:58;78876.94;;;-145.10;100.00
56334;BME280;42240;53.626;55.886;2023-02-02T18:47:32;78847.25;;;-145.10;100.00
56334;BME280;42240;53.626;55.886;2023-02-02T18:49:06;78865.06;;;-145.10;100.00
56334;BME280;42240;53.626;55.886;2023-02-02T18:50:39;78890.78;;;-145.10;100.00
56334;BME280;42240;53.626;55.886;2023-02-02T18:52:12;78900.69;;;-145.10;100.00
56334;BME280;42240;53.626;55.886;2023-02-02T18:53:46;78918.50;;;-145.10;100.00
56334;BME280;42240;53.626;55.886;2023-02-02T18:55:19;78926.41;;;-145.10;100.00
56334;BME280;42240;53.626;55.886;2023-02-02T18:56:52;78926.41;;;-145.10;100.00
56334;BME280;42240;53.626;55.886;2023-02-02T18:58:26;78934.31;;;-145.10;100.00
56334;BME280;42240;53.626;55.886;2023-02-02T18:59:59;78922.44;;;-145.10;100.00
56334;BME280;42240;53.626;55.886;2023-02-02T19:01:32;78922.44;;;-145.10;100.00
56334;BME280;42240;53.626;55.886;2023-02-02T19:03:06;78916.50;;;-145.10;100.00
56334;BME280;42240;53.626;55.886;2023-02-02T19:04:39;78910.56;;;-145.10;100.00
56334;BME280;42240;53.626;55.886;2023-02-02T19:06:32;78902.66;;;-145.10;100.00
56334;BME280;42240;53.626;55.886;2023-02-02T19:08:23;78918.50;;;-145.10;100.00
56334;BME280;42240;53.626;55.886;2023-02-02T19:09:57;78910.56;;;-145.10;100.00
56334;BME280;42240;53.626;55.886;2023-02-02T19:13:17;78892.75;;;-145.10;100.00
56334;BME280;42240;53.626;55.886;2023-02-02T19:14:51;78904.63;;;-145.10;100.00
56334;BME280;42240;53.626;55.886;2023-02-02T19:16:28;78908.59;;;-145.10;100.00
56334;BME280;42240;53.626;55.886;2023-02-02T19:18:02;78936.28;;;-145.10;100.00
56334;BME280;42240;53.626;55.886;2023-02-02T19:19:35;78938.28;;;-145.10;100.00
56334;BME280;42240;53.626;55.886;2023-02-02T19:21:10;78932.34;;;-145.10;100.00
56334;BME280;42240;53.626;55.886;2023-02-02T19:22:44;78948.16;;;-145.10;100.00
56334;BME280;42240;53.626;55.886;2023-02-02T19:24:17;78938.28;;;-145.10;100.00